Time;durP1;ratioP1;P1;durP2;ratioP2;P2;SDS_P1;SDS_P2;PMS_P1;PMS_P2;Temp;Humidity;BMP_temperature;BMP_pressure;BME280_temperature;BME280_humidity;BME280_pressure;Samples;Min_cycle;Max_cycle;Signal;HPM_P1;HPM_P2
2022/08/31 00:04:28;;;;;;;2.17;1.20;;;;;;;;;;5084368;28;20386;-74
2022/08/31 00:06:53;;;;;;;2.45;1.17;;;;;;;;;;5073598;28;20038;-74
2022/08/31 00:09:18;;;;;;;2.78;1.52;;;;;;;;;;5066434;28;20110;-74
2022/08/31 00:11:44;;;;;;;9.27;1.70;;;;;;;;;;5064924;28;20103;-74
2022/08/31 00:14:09;;;;;;;3.17;1.55;;;;;;;;;;5050772;28;20042;-74
2022/08/31 00:16:36;;;;;;;2.78;1.60;;;;;;;;;;5076659;28;20040;-74
2022/08/31 00:19:02;;;;;;;3.30;1.70;;;;;;;;;;5065994;28;21345;-74
2022/08/31 00:21:28;;;;;;;5.82;1.70;;;;;;;;;;5059281;28;20024;-75
2022/08/31 00:23:53;;;;;;;2.92;1.48;;;;;;;;;;5083921;28;20039;-74
2022/08/31 00:26:19;;;;;;;7.60;1.70;;;;;;;;;;5060395;28;20048;-74
2022/08/31 00:28:44;;;;;;;3.47;1.83;;;;;;;;;;5059860;28;20059;-74
2022/08/31 00:31:09;;;;;;;7.63;1.85;;;;;;;;;;5082522;28;20146;-74
2022/08/31 00:33:38;;;;;;;6.28;2.03;;;;;;;;;;5081518;28;20028;-75
2022/08/31 00:36:08;;;;;;;5.50;2.30;;;;;;;;;;5062968;28;20031;-74
2022/08/31 00:38:33;;;;;;;5.65;1.90;;;;;;;;;;5073627;28;20089;-74
2022/08/31 00:40:59;;;;;;;5.28;2.03;;;;;;;;;;5061503;28;20036;-74
2022/08/31 00:43:33;;;;;;;4.90;1.98;;;;;;;;;;5065919;28;20048;-74
2022/08/31 00:45:59;;;;;;;3.53;1.63;;;;;;;;;;5080431;28;20036;-74
2022/08/31 00:48:24;;;;;;;3.25;1.80;;;;;;;;;;5080123;28;20035;-74
2022/08/31 00:50:49;;;;;;;3.70;2.00;;;;;;;;;;5082389;28;20107;-74
2022/08/31 00:53:15;;;;;;;3.05;1.55;;;;;;;;;;5083949;28;20537;-74
2022/08/31 00:55:40;;;;;;;7.22;2.17;;;;;;;;;;5074334;28;20044;-74
2022/08/31 00:58:10;;;;;;;3.95;1.92;;;;;;;;;;5077539;28;20379;-74
2022/08/31 01:00:35;;;;;;;4.13;1.70;;;;;;;;;;5054867;28;20090;-74
2022/08/31 01:03:01;;;;;;;4.60;1.65;;;;;;;;;;5059163;28;20459;-74
2022/08/31 01:05:27;;;;;;;6.10;1.92;;;;;;;;;;5045981;28;20035;-74
2022/08/31 01:07:52;;;;;;;3.53;2.08;;;;;;;;;;5059276;28;20080;-74
2022/08/31 01:10:19;;;;;;;4.28;2.60;;;;;;;;;;5061875;28;20443;-75
2022/08/31 01:12:45;;;;;;;3.72;2.17;;;;;;;;;;5058906;28;20028;-75
2022/08/31 01:15:10;;;;;;;3.17;1.88;;;;;;;;;;5061574;28;20115;-75
2022/08/31 01:17:35;;;;;;;5.10;2.80;;;;;;;;;;5056106;28;20115;-75
2022/08/31 01:20:15;;;;;;;4.65;2.30;;;;;;;;;;5066054;28;20047;-75
2022/08/31 01:22:52;;;;;;;2.95;1.60;;;;;;;;;;5062732;28;20024;-75
2022/08/31 01:25:18;;;;;;;7.88;2.10;;;;;;;;;;5081725;28;20399;-75
2022/08/31 01:27:43;;;;;;;11.63;2.50;;;;;;;;;;5059138;28;20069;-75
2022/08/31 01:30:10;;;;;;;4.97;2.55;;;;;;;;;;5049360;28;20547;-75
2022/08/31 01:32:36;;;;;;;3.58;2.40;;;;;;;;;;5062524;28;20055;-75
2022/08/31 01:35:02;;;;;;;5.80;2.13;;;;;;;;;;5079708;28;20024;-75
2022/08/31 01:37:27;;;;;;;5.78;2.30;;;;;;;;;;5061567;28;20471;-74
2022/08/31 01:39:53;;;;;;;2.50;1.70;;;;;;;;;;5081818;28;20439;-75
2022/08/31 01:42:18;;;;;;;4.82;2.35;;;;;;;;;;5055866;28;20052;-75
2022/08/31 01:44:43;;;;;;;4.38;2.53;;;;;;;;;;5082422;28;20029;-75
2022/08/31 01:47:09;;;;;;;5.15;2.45;;;;;;;;;;5061669;28;20391;-74
2022/08/31 01:49:34;;;;;;;4.13;2.00;;;;;;;;;;5080652;28;20077;-73
2022/08/31 01:52:00;;;;;;;6.45;2.35;;;;;;;;;;5054019;28;20112;-75
2022/08/31 01:54:26;;;;;;;6.90;2.20;;;;;;;;;;5048811;28;20035;-75
2022/08/31 01:56:51;;;;;;;3.30;2.28;;;;;;;;;;5044090;28;20035;-75
2022/08/31 01:59:18;;;;;;;6.35;2.30;;;;;;;;;;5080726;28;20032;-75
2022/08/31 02:01:45;;;;;;;4.13;1.67;;;;;;;;;;5047050;28;20022;-75
2022/08/31 02:04:11;;;;;;;5.00;1.65;;;;;;;;;;5075919;28;20062;-75
2022/08/31 02:06:42;;;;;;;3.20;1.77;;;;;;;;;;5059408;28;20023;-75
2022/08/31 02:09:07;;;;;;;3.58;1.50;;;;;;;;;;5065530;28;20067;-75
2022/08/31 02:11:33;;;;;;;3.03;1.70;;;;;;;;;;5033792;28;20047;-75
2022/08/31 02:13:58;;;;;;;3.20;1.73;;;;;;;;;;5068686;28;20395;-75
2022/08/31 02:16:24;;;;;;;4.15;1.63;;;;;;;;;;5063812;28;20138;-75
2022/08/31 02:18:49;;;;;;;3.53;1.55;;;;;;;;;;5051985;28;20126;-75
2022/08/31 02:21:14;;;;;;;7.47;1.70;;;;;;;;;;5079366;28;20393;-75
2022/08/31 02:23:40;;;;;;;7.30;1.30;;;;;;;;;;5087055;28;20116;-75
2022/08/31 02:26:06;;;;;;;5.10;1.55;;;;;;;;;;5046077;28;20047;-74
2022/08/31 02:28:31;;;;;;;3.28;1.48;;;;;;;;;;5083929;28;20487;-75
2022/08/31 02:30:56;;;;;;;4.45;1.48;;;;;;;;;;5081842;28;20644;-75
2022/08/31 02:33:23;;;;;;;3.22;1.40;;;;;;;;;;5053447;28;20066;-75
2022/08/31 02:35:49;;;;;;;3.92;1.55;;;;;;;;;;5079826;28;20145;-75
2022/08/31 02:38:14;;;;;;;4.10;1.50;;;;;;;;;;5085813;28;20619;-75
2022/08/31 02:40:40;;;;;;;4.53;1.30;;;;;;;;;;5085086;28;20055;-75
2022/08/31 02:43:06;;;;;;;4.25;1.23;;;;;;;;;;5084277;28;20041;-75
2022/08/31 02:45:31;;;;;;;3.42;1.25;;;;;;;;;;5075118;28;20019;-75
2022/08/31 02:47:56;;;;;;;4.00;1.42;;;;;;;;;;5081923;28;20028;-75
2022/08/31 02:50:22;;;;;;;4.68;1.17;;;;;;;;;;5051424;28;20103;-75
2022/08/31 02:52:48;;;;;;;3.25;1.20;;;;;;;;;;5082763;28;20059;-74
2022/08/31 02:55:14;;;;;;;1.77;0.90;;;;;;;;;;5065081;28;20539;-74
2022/08/31 02:57:39;;;;;;;4.35;0.95;;;;;;;;;;5060285;28;20066;-75
2022/08/31 03:00:05;;;;;;;2.50;1.10;;;;;;;;;;5080176;28;20115;-75
2022/08/31 03:02:31;;;;;;;3.35;1.33;;;;;;;;;;5081503;28;20052;-75
2022/08/31 03:04:59;;;;;;;2.90;1.10;;;;;;;;;;5063490;28;20039;-75
2022/08/31 03:07:24;;;;;;;6.75;1.15;;;;;;;;;;5063728;28;20029;-75
2022/08/31 03:09:49;;;;;;;3.47;0.80;;;;;;;;;;5066701;28;20048;-75
2022/08/31 03:12:15;;;;;;;1.98;0.93;;;;;;;;;;5067910;28;20109;-74
2022/08/31 03:14:40;;;;;;;2.80;0.85;;;;;;;;;;5080004;28;20052;-74
2022/08/31 03:17:06;;;;;;;8.18;1.00;;;;;;;;;;5082720;28;20538;-74
2022/08/31 03:19:31;;;;;;;2.42;1.25;;;;;;;;;;5067020;28;20436;-74
2022/08/31 03:21:56;;;;;;;3.03;1.15;;;;;;;;;;5085556;28;20115;-74
2022/08/31 03:24:22;;;;;;;2.45;1.05;;;;;;;;;;5078434;28;20067;-74
2022/08/31 03:26:48;;;;;;;3.13;0.90;;;;;;;;;;5081097;28;20122;-74
2022/08/31 03:29:14;;;;;;;2.42;0.90;;;;;;;;;;5050083;28;20046;-74
2022/08/31 03:31:39;;;;;;;4.40;0.90;;;;;;;;;;5080837;28;20033;-74
2022/08/31 03:34:04;;;;;;;2.97;0.85;;;;;;;;;;5076849;28;20047;-74
2022/08/31 03:36:30;;;;;;;4.75;2.28;;;;;;;;;;5078714;28;20020;-74
2022/08/31 03:38:55;;;;;;;2.45;0.85;;;;;;;;;;5067974;28;20028;-74
2022/08/31 03:41:22;;;;;;;1.83;0.73;;;;;;;;;;5084554;28;20106;-74
2022/08/31 03:43:48;;;;;;;4.30;1.15;;;;;;;;;;5046642;28;20054;-73
2022/08/31 03:46:13;;;;;;;1.55;0.82;;;;;;;;;;5080672;28;20040;-74
2022/08/31 03:48:38;;;;;;;1.95;1.00;;;;;;;;;;5082239;28;20028;-74
2022/08/31 03:51:04;;;;;;;5.40;1.13;;;;;;;;;;5082797;28;20074;-72
2022/08/31 03:53:29;;;;;;;3.97;1.10;;;;;;;;;;5083150;28;20044;-76
2022/08/31 03:56:00;;;;;;;2.33;1.15;;;;;;;;;;5061620;28;20052;-76
2022/08/31 03:58:27;;;;;;;3.33;1.17;;;;;;;;;;5068034;28;20115;-76
2022/08/31 04:00:53;;;;;;;1.55;0.80;;;;;;;;;;5068106;28;20024;-74
2022/08/31 04:03:18;;;;;;;3.10;0.80;;;;;;;;;;5079760;28;20071;-74
2022/08/31 04:05:43;;;;;;;3.75;1.00;;;;;;;;;;5077481;28;20031;-74
2022/08/31 04:08:09;;;;;;;2.40;1.10;;;;;;;;;;5045400;28;20055;-74
2022/08/31 04:10:38;;;;;;;1.75;0.80;;;;;;;;;;5064309;28;20062;-74
2022/08/31 04:13:03;;;;;;;2.25;0.98;;;;;;;;;;5060390;28;20024;-74
2022/08/31 04:15:28;;;;;;;1.58;0.90;;;;;;;;;;5076811;28;20726;-74
2022/08/31 04:17:54;;;;;;;3.40;1.30;;;;;;;;;;5082023;28;20070;-74
2022/08/31 04:20:19;;;;;;;4.82;1.10;;;;;;;;;;5080523;28;20528;-74
2022/08/31 04:22:44;;;;;;;2.33;1.10;;;;;;;;;;5080815;28;20149;-74
2022/08/31 04:25:10;;;;;;;3.33;0.82;;;;;;;;;;5070128;28;20056;-74
2022/08/31 04:27:37;;;;;;;2.20;0.95;;;;;;;;;;5057805;28;21476;-74
2022/08/31 04:30:03;;;;;;;3.80;1.10;;;;;;;;;;5079899;28;20032;-74
2022/08/31 04:32:28;;;;;;;1.67;0.73;;;;;;;;;;5063564;28;20422;-74
2022/08/31 04:34:54;;;;;;;3.08;0.80;;;;;;;;;;5078397;28;20070;-74
2022/08/31 04:37:19;;;;;;;5.22;1.10;;;;;;;;;;5082721;28;20441;-74
2022/08/31 04:39:45;;;;;;;3.33;1.23;;;;;;;;;;5061381;28;20064;-74
2022/08/31 04:42:10;;;;;;;1.92;0.88;;;;;;;;;;5082549;28;20066;-74
2022/08/31 04:44:36;;;;;;;6.05;1.40;;;;;;;;;;5075643;28;20106;-74
2022/08/31 04:47:02;;;;;;;3.47;1.00;;;;;;;;;;5063294;28;20028;-74
2022/08/31 04:49:27;;;;;;;3.35;1.15;;;;;;;;;;5048087;28;20020;-74
2022/08/31 04:51:53;;;;;;;3.67;1.23;;;;;;;;;;5062869;28;20113;-74
2022/08/31 04:54:18;;;;;;;1.85;0.90;;;;;;;;;;5077103;28;20067;-74
2022/08/31 04:56:44;;;;;;;2.80;1.23;;;;;;;;;;5066403;28;20036;-75
2022/08/31 04:59:12;;;;;;;2.97;1.30;;;;;;;;;;5065720;28;20061;-74
2022/08/31 05:01:39;;;;;;;3.38;1.05;;;;;;;;;;5063784;28;20032;-74
2022/08/31 05:04:05;;;;;;;3.47;1.20;;;;;;;;;;5074306;28;20032;-74
2022/08/31 05:06:31;;;;;;;3.25;1.23;;;;;;;;;;5053193;28;20498;-74
2022/08/31 05:08:59;;;;;;;3.05;1.33;;;;;;;;;;5052899;28;20028;-74
2022/08/31 05:11:24;;;;;;;3.58;1.50;;;;;;;;;;5069941;28;20368;-74
2022/08/31 05:13:51;;;;;;;4.07;1.48;;;;;;;;;;5068578;28;20055;-74
2022/08/31 05:16:16;;;;;;;6.72;1.70;;;;;;;;;;5053415;28;20025;-74
2022/08/31 05:18:42;;;;;;;2.60;1.20;;;;;;;;;;5053073;28;20534;-75
2022/08/31 05:21:30;;;;;;;5.95;1.75;;;;;;;;;;5069460;28;20024;-75
2022/08/31 05:23:57;;;;;;;3.83;1.67;;;;;;;;;;5067485;28;20054;-74
2022/08/31 05:26:25;;;;;;;2.78;1.40;;;;;;;;;;5045616;28;20428;-75
2022/08/31 05:28:50;;;;;;;2.38;1.30;;;;;;;;;;5050656;28;20043;-75
2022/08/31 05:31:16;;;;;;;6.32;1.70;;;;;;;;;;5070562;28;20044;-75
2022/08/31 05:33:42;;;;;;;5.50;1.77;;;;;;;;;;5060206;28;20028;-75
2022/08/31 05:36:08;;;;;;;2.83;1.60;;;;;;;;;;5069452;28;20094;-80
2022/08/31 05:38:34;;;;;;;5.03;1.23;;;;;;;;;;5054169;28;20024;-75
2022/08/31 05:40:59;;;;;;;2.80;1.48;;;;;;;;;;5057968;28;20027;-75
2022/08/31 05:43:24;;;;;;;4.80;1.52;;;;;;;;;;5065774;28;20036;-75
2022/08/31 05:45:50;;;;;;;4.82;1.70;;;;;;;;;;5051183;28;20062;-75
2022/08/31 05:48:15;;;;;;;4.07;1.42;;;;;;;;;;5037962;28;20099;-75
2022/08/31 05:50:40;;;;;;;3.15;1.42;;;;;;;;;;5078164;28;20029;-75
2022/08/31 05:53:06;;;;;;;7.30;2.38;;;;;;;;;;5069691;28;20070;-75
2022/08/31 05:55:31;;;;;;;6.00;1.52;;;;;;;;;;5053148;28;20502;-75
2022/08/31 05:57:57;;;;;;;5.85;1.80;;;;;;;;;;5065931;28;20068;-75
2022/08/31 06:00:23;;;;;;;4.57;1.83;;;;;;;;;;5034584;28;20524;-75
2022/08/31 06:02:48;;;;;;;2.45;1.45;;;;;;;;;;5050831;28;20544;-75
2022/08/31 06:05:13;;;;;;;7.28;1.98;;;;;;;;;;5069395;28;20107;-75
2022/08/31 06:07:39;;;;;;;4.80;1.60;;;;;;;;;;5051176;28;20409;-75
2022/08/31 06:10:04;;;;;;;2.92;1.35;;;;;;;;;;5066959;28;20052;-75
2022/08/31 06:12:30;;;;;;;2.97;1.70;;;;;;;;;;5051330;28;20326;-75
2022/08/31 06:14:56;;;;;;;3.20;1.67;;;;;;;;;;5050854;28;20492;-75
2022/08/31 06:17:22;;;;;;;3.92;1.70;;;;;;;;;;5050062;28;20064;-75
2022/08/31 06:19:50;;;;;;;5.43;1.50;;;;;;;;;;5069233;28;20024;-75
2022/08/31 06:22:16;;;;;;;4.15;1.63;;;;;;;;;;5050347;28;20036;-75
2022/08/31 06:24:41;;;;;;;6.20;1.63;;;;;;;;;;5068090;28;20588;-74
2022/08/31 06:27:09;;;;;;;2.45;1.48;;;;;;;;;;5071165;28;20127;-75
2022/08/31 06:29:34;;;;;;;10.50;2.42;;;;;;;;;;5050297;28;20060;-75
2022/08/31 06:31:59;;;;;;;3.40;1.52;;;;;;;;;;5066742;28;20372;-75
2022/08/31 06:34:27;;;;;;;2.55;1.38;;;;;;;;;;5034151;28;20094;-75
2022/08/31 06:36:53;;;;;;;6.95;1.90;;;;;;;;;;5050881;28;20121;-75
2022/08/31 06:39:18;;;;;;;3.97;1.60;;;;;;;;;;5050786;28;20680;-75
2022/08/31 06:41:43;;;;;;;3.67;1.52;;;;;;;;;;5067766;28;20059;-75
2022/08/31 06:44:10;;;;;;;8.05;1.85;;;;;;;;;;5067530;28;20048;-75
2022/08/31 06:46:36;;;;;;;3.40;1.75;;;;;;;;;;5050594;28;20028;-75
2022/08/31 06:49:01;;;;;;;7.50;1.85;;;;;;;;;;5052377;28;20491;-75
2022/08/31 06:51:27;;;;;;;4.25;2.20;;;;;;;;;;5050769;28;20635;-75
2022/08/31 06:53:52;;;;;;;5.07;2.10;;;;;;;;;;5050688;28;20021;-75
2022/08/31 06:56:24;;;;;;;6.50;1.92;;;;;;;;;;5054411;28;20024;-75
2022/08/31 06:58:49;;;;;;;4.60;2.03;;;;;;;;;;5047854;28;20052;-75
2022/08/31 07:01:16;;;;;;;3.15;1.80;;;;;;;;;;5054482;28;20105;-75
2022/08/31 07:03:42;;;;;;;3.80;2.08;;;;;;;;;;5053933;28;20067;-75
2022/08/31 07:06:16;;;;;;;5.25;1.88;;;;;;;;;;5070564;28;20028;-76
2022/08/31 07:08:43;;;;;;;6.97;1.73;;;;;;;;;;5070302;28;20102;-75
2022/08/31 07:11:19;;;;;;;2.75;1.50;;;;;;;;;;5054407;28;20032;-76
2022/08/31 07:13:45;;;;;;;5.97;1.67;;;;;;;;;;5071713;28;20028;-76
2022/08/31 07:16:11;;;;;;;4.63;1.55;;;;;;;;;;5054521;28;20024;-76
2022/08/31 07:18:37;;;;;;;4.47;1.77;;;;;;;;;;5067344;28;20138;-75
2022/08/31 07:21:11;;;;;;;5.80;1.58;;;;;;;;;;5038259;28;20107;-76
2022/08/31 07:23:37;;;;;;;3.92;1.60;;;;;;;;;;5055623;28;20020;-76
2022/08/31 07:26:07;;;;;;;5.40;1.80;;;;;;;;;;5036861;28;20035;-76
2022/08/31 07:28:32;;;;;;;4.82;1.38;;;;;;;;;;5064982;28;20046;-76
2022/08/31 07:30:59;;;;;;;4.70;1.33;;;;;;;;;;5054294;28;20029;-77
2022/08/31 07:33:24;;;;;;;3.17;1.35;;;;;;;;;;5059708;28;20100;-77
2022/08/31 07:35:49;;;;;;;4.70;1.92;;;;;;;;;;5057171;28;20527;-76
2022/08/31 07:43:43;;;;;;;2.30;0.90;;;;;;;;;;5071697;28;20118;-77
2022/08/31 07:46:08;;;;;;;3.55;1.10;;;;;;;;;;5038780;28;20480;-77
2022/08/31 07:48:34;;;;;;;3.40;1.20;;;;;;;;;;5054591;28;20078;-77
2022/08/31 07:50:59;;;;;;;4.68;1.10;;;;;;;;;;5055267;28;20028;-77
2022/08/31 07:53:24;;;;;;;2.75;1.02;;;;;;;;;;5073254;28;20059;-77
2022/08/31 07:55:57;;;;;;;3.05;1.58;;;;;;;;;;5072549;28;20067;-78
2022/08/31 07:58:22;;;;;;;4.38;1.23;;;;;;;;;;5057520;28;20107;-78
2022/08/31 08:00:48;;;;;;;3.15;1.15;;;;;;;;;;5052599;28;20733;-78
2022/08/31 08:03:14;;;;;;;3.30;1.10;;;;;;;;;;5048977;28;20029;-78
2022/08/31 08:05:40;;;;;;;4.32;0.95;;;;;;;;;;5055961;28;20068;-78
2022/08/31 08:08:07;;;;;;;3.00;1.00;;;;;;;;;;5036969;28;20062;-78
2022/08/31 08:10:32;;;;;;;4.35;1.38;;;;;;;;;;5075129;28;20797;-78
2022/08/31 08:13:02;;;;;;;4.93;1.50;;;;;;;;;;5060580;28;20426;-78
2022/08/31 08:15:28;;;;;;;3.53;1.27;;;;;;;;;;5062003;28;20028;-78
2022/08/31 08:17:53;;;;;;;2.67;0.98;;;;;;;;;;5056277;28;20034;-78
2022/08/31 08:20:18;;;;;;;4.55;1.30;;;;;;;;;;5055246;28;20104;-78
2022/08/31 08:22:44;;;;;;;5.25;1.20;;;;;;;;;;5056470;28;20024;-77
2022/08/31 08:25:10;;;;;;;3.50;0.95;;;;;;;;;;5058068;28;20028;-77
2022/08/31 08:27:35;;;;;;;3.45;1.13;;;;;;;;;;5060074;28;20090;-77
2022/08/31 08:30:02;;;;;;;8.70;1.33;;;;;;;;;;5078371;28;20376;-77
2022/08/31 08:32:29;;;;;;;3.55;0.90;;;;;;;;;;5055241;28;20025;-77
2022/08/31 08:34:55;;;;;;;3.90;1.25;;;;;;;;;;5061714;28;20413;-77
2022/08/31 08:37:20;;;;;;;2.72;1.13;;;;;;;;;;5059019;28;20060;-77
2022/08/31 08:39:45;;;;;;;2.80;1.13;;;;;;;;;;5058545;28;20462;-77
2022/08/31 08:42:12;;;;;;;7.25;1.27;;;;;;;;;;5071206;28;20066;-77
2022/08/31 08:44:37;;;;;;;4.85;1.30;;;;;;;;;;5043304;28;20020;-76
2022/08/31 08:47:13;;;;;;;3.10;1.00;;;;;;;;;;5052980;28;20384;-76
2022/08/31 08:49:45;;;;;;;2.00;0.85;;;;;;;;;;5054059;28;20046;-76
2022/08/31 08:52:22;;;;;;;4.10;1.10;;;;;;;;;;5053251;28;20348;-76
2022/08/31 08:54:48;;;;;;;3.08;0.98;;;;;;;;;;5039914;28;20035;-77
2022/08/31 08:57:17;;;;;;;2.95;1.13;;;;;;;;;;5050057;28;20036;-77
2022/08/31 08:59:43;;;;;;;5.30;1.20;;;;;;;;;;5068791;28;20108;-77
2022/08/31 09:02:18;;;;;;;3.95;1.10;;;;;;;;;;5061172;28;20036;-76
2022/08/31 09:05:03;;;;;;;3.75;1.02;;;;;;;;;;5048258;28;20074;-76
2022/08/31 09:07:38;;;;;;;5.95;1.10;;;;;;;;;;5088670;28;20028;-74
2022/08/31 09:10:29;;;;;;;3.75;0.95;;;;;;;;;;5078540;28;20415;-76
2022/08/31 09:13:24;;;;;;;1.85;0.82;;;;;;;;;;5071032;28;20057;-76
2022/08/31 09:16:03;;;;;;;3.75;1.10;;;;;;;;;;5069223;28;20537;-74
2022/08/31 09:18:31;;;;;;;2.20;1.05;;;;;;;;;;5056945;28;20024;-75
2022/08/31 09:21:20;;;;;;;2.97;0.98;;;;;;;;;;5069265;28;20036;-76
2022/08/31 09:24:00;;;;;;;3.63;0.90;;;;;;;;;;5077742;28;20028;-76
2022/08/31 09:26:27;;;;;;;1.48;0.80;;;;;;;;;;5059721;28;20075;-76
2022/08/31 09:28:52;;;;;;;4.43;1.40;;;;;;;;;;5045924;28;20471;-76
2022/08/31 09:31:33;;;;;;;1.83;0.85;;;;;;;;;;5046569;28;20074;-74
2022/08/31 09:33:58;;;;;;;3.63;1.30;;;;;;;;;;5064471;28;20096;-74
2022/08/31 09:36:32;;;;;;;5.88;1.42;;;;;;;;;;5061588;28;20024;-74
2022/08/31 09:39:23;;;;;;;9.90;1.00;;;;;;;;;;5065257;28;20043;-74
2022/08/31 09:41:49;;;;;;;5.63;0.80;;;;;;;;;;5061864;28;20068;-74
2022/08/31 09:44:33;;;;;;;4.00;1.00;;;;;;;;;;5049286;28;20107;-74
2022/08/31 09:47:04;;;;;;;1.67;0.60;;;;;;;;;;5052860;28;20365;-74
2022/08/31 09:49:36;;;;;;;1.90;1.10;;;;;;;;;;5053281;28;20031;-75
2022/08/31 09:55:18;;;;;;;2.72;1.00;;;;;;;;;;5073121;28;20106;-75
2022/08/31 09:57:57;;;;;;;;;;;;;;;;;;5063253;28;20528;-75
2022/08/31 10:00:35;;;;;;;2.47;0.90;;;;;;;;;;5089627;28;20322;-75
2022/08/31 10:03:27;;;;;;;4.88;1.17;;;;;;;;;;5071617;28;20070;-72
2022/08/31 10:05:53;;;;;;;2.67;1.27;;;;;;;;;;5045680;28;20102;-73
2022/08/31 10:08:37;;;;;;;1.40;0.68;;;;;;;;;;5034552;28;20107;-73
2022/08/31 10:11:16;;;;;;;9.02;1.10;;;;;;;;;;5053911;28;20093;-73
2022/08/31 10:13:55;;;;;;;3.55;1.35;;;;;;;;;;5059847;28;20024;-73
2022/08/31 10:16:41;;;;;;;3.08;0.82;;;;;;;;;;5068376;28;20024;-73
2022/08/31 10:19:10;;;;;;;3.50;0.80;;;;;;;;;;5051498;28;20028;-73
2022/08/31 10:21:53;;;;;;;2.58;0.90;;;;;;;;;;5046218;28;20025;-73
2022/08/31 10:24:37;;;;;;;5.13;1.13;;;;;;;;;;5074732;28;20046;-73
2022/08/31 10:27:05;;;;;;;2.83;1.10;;;;;;;;;;5033027;28;20111;-74
2022/08/31 10:29:38;;;;;;;7.70;1.30;;;;;;;;;;5052182;28;20083;-74
2022/08/31 10:32:24;;;;;;;2.78;0.77;;;;;;;;;;5076066;28;20020;-74
2022/08/31 10:35:06;;;;;;;2.08;0.73;;;;;;;;;;5039920;28;20403;-73
2022/08/31 10:37:45;;;;;;;4.75;0.75;;;;;;;;;;5039607;28;20029;-74
2022/08/31 10:40:30;;;;;;;2.22;0.90;;;;;;;;;;5071370;28;20025;-73
2022/08/31 10:43:08;;;;;;;2.00;0.90;;;;;;;;;;5071392;28;20502;-74
2022/08/31 10:45:35;;;;;;;2.22;0.90;;;;;;;;;;5072394;28;20125;-74
2022/08/31 10:48:01;;;;;;;3.10;0.93;;;;;;;;;;5053902;28;20043;-74
2022/08/31 10:50:34;;;;;;;3.92;0.80;;;;;;;;;;5062331;28;20104;-74
2022/08/31 10:53:21;;;;;;;3.80;0.90;;;;;;;;;;5063274;28;20142;-74
2022/08/31 10:56:00;;;;;;;5.78;0.95;;;;;;;;;;5081388;28;20036;-74
2022/08/31 10:58:35;;;;;;;2.33;1.00;;;;;;;;;;5079544;28;20031;-74
2022/08/31 11:01:06;;;;;;;5.25;1.05;;;;;;;;;;5062368;28;20023;-73
2022/08/31 11:03:55;;;;;;;4.72;1.13;;;;;;;;;;5062563;28;20233;-74
2022/08/31 11:06:23;;;;;;;2.65;1.10;;;;;;;;;;5062406;28;20035;-75
2022/08/31 11:09:18;;;;;;;6.03;1.15;;;;;;;;;;5076622;28;20024;-74
2022/08/31 11:11:57;;;;;;;5.40;0.98;;;;;;;;;;5057967;28;20027;-75
2022/08/31 11:14:28;;;;;;;7.55;0.80;;;;;;;;;;5052629;28;20025;-75
2022/08/31 11:17:20;;;;;;;1.80;0.90;;;;;;;;;;5070112;28;20033;-75
2022/08/31 11:20:07;;;;;;;4.65;1.00;;;;;;;;;;5070320;28;20021;-74
2022/08/31 11:22:42;;;;;;;2.65;1.05;;;;;;;;;;5070680;28;20029;-74
2022/08/31 11:25:25;;;;;;;8.02;1.42;;;;;;;;;;5071881;28;20039;-74
2022/08/31 11:27:57;;;;;;;4.93;1.15;;;;;;;;;;5070498;28;20063;-74
2022/08/31 11:30:28;;;;;;;5.10;1.02;;;;;;;;;;5054167;28;20494;-74
2022/08/31 11:33:01;;;;;;;4.63;1.13;;;;;;;;;;5052171;28;20042;-75
2022/08/31 11:35:46;;;;;;;14.60;2.08;;;;;;;;;;5068429;28;20069;-74
2022/08/31 11:38:56;;;;;;;2.65;0.63;;;;;;;;;;5089888;28;20061;-75
2022/08/31 11:42:32;;;;;;;4.15;0.90;;;;;;;;;;5088510;28;20487;-75
2022/08/31 11:45:25;;;;;;;2.47;1.00;;;;;;;;;;5051552;28;20032;-75
2022/08/31 11:47:51;;;;;;;3.75;0.73;;;;;;;;;;5018289;28;20383;-75
2022/08/31 11:50:35;;;;;;;4.75;1.17;;;;;;;;;;5051067;28;20044;-75
2022/08/31 11:53:00;;;;;;;4.63;0.95;;;;;;;;;;5069790;28;20062;-75
2022/08/31 11:55:29;;;;;;;4.22;1.10;;;;;;;;;;5052578;28;20569;-75
2022/08/31 11:58:10;;;;;;;3.20;1.00;;;;;;;;;;5049651;28;20329;-74
2022/08/31 12:00:45;;;;;;;6.22;1.20;;;;;;;;;;5065584;28;20096;-78
2022/08/31 12:03:31;;;;;;;4.05;1.25;;;;;;;;;;5083974;28;20066;-78
2022/08/31 12:05:56;;;;;;;4.60;0.98;;;;;;;;;;5071720;28;20044;-78
2022/08/31 12:08:25;;;;;;;4.70;1.00;;;;;;;;;;5054118;28;20051;-78
2022/08/31 12:11:22;;;;;;;6.38;0.88;;;;;;;;;;5052287;28;20036;-79
2022/08/31 12:14:00;;;;;;;7.20;1.60;;;;;;;;;;5057369;28;20245;-80
2022/08/31 12:16:47;;;;;;;2.38;0.88;;;;;;;;;;5049706;28;20033;-80
2022/08/31 12:25:58;;;;;;;1.58;0.70;;;;;;;;;;5074373;28;20043;-80
2022/08/31 12:28:42;;;;;;;2.33;1.10;;;;;;;;;;5053468;28;20049;-80
2022/08/31 12:31:12;;;;;;;5.53;1.08;;;;;;;;;;5036178;28;20420;-80
2022/08/31 12:33:41;;;;;;;4.10;1.17;;;;;;;;;;5036910;28;20028;-80
2022/08/31 12:36:15;;;;;;;4.32;1.20;;;;;;;;;;5036484;28;20773;-80
2022/08/31 12:38:40;;;;;;;3.65;1.00;;;;;;;;;;5036209;28;20566;-80
2022/08/31 12:41:07;;;;;;;4.10;1.13;;;;;;;;;;5051769;28;20021;-80
2022/08/31 12:43:44;;;;;;;2.42;0.90;;;;;;;;;;5034841;28;20101;-80
2022/08/31 12:46:28;;;;;;;9.35;1.05;;;;;;;;;;5051319;28;20496;-80
2022/08/31 12:49:20;;;;;;;3.95;0.80;;;;;;;;;;5066733;28;20089;-80
2022/08/31 12:51:48;;;;;;;3.92;2.00;;;;;;;;;;5051629;28;20037;-80
2022/08/31 12:54:58;;;;;;;3.83;1.00;;;;;;;;;;5038419;28;20416;-81
2022/08/31 12:57:55;;;;;;;2.17;0.85;;;;;;;;;;5067811;28;20040;-80
2022/08/31 13:00:28;;;;;;;1.55;0.88;;;;;;;;;;5071671;28;20050;-80
2022/08/31 13:02:59;;;;;;;4.93;1.10;;;;;;;;;;5071140;28;20024;-80
2022/08/31 13:05:31;;;;;;;2.93;0.93;;;;;;;;;;5038615;28;20055;-80
2022/08/31 13:07:56;;;;;;;4.50;1.00;;;;;;;;;;5055817;28;20329;-81
2022/08/31 13:10:31;;;;;;;2.42;0.80;;;;;;;;;;5039050;28;20450;-81
2022/08/31 13:12:59;;;;;;;2.60;1.10;;;;;;;;;;5035755;28;20082;-79
2022/08/31 13:15:27;;;;;;;6.13;1.20;;;;;;;;;;5068914;28;20448;-76
2022/08/31 13:17:53;;;;;;;3.38;1.02;;;;;;;;;;5069022;28;20082;-77
2022/08/31 13:20:19;;;;;;;4.07;0.95;;;;;;;;;;5037588;28;20141;-78
2022/08/31 13:22:47;;;;;;;1.67;0.73;;;;;;;;;;5069389;28;20058;-78
2022/08/31 13:25:32;;;;;;;4.78;1.02;;;;;;;;;;5052318;28;20650;-78
2022/08/31 13:27:57;;;;;;;5.95;1.05;;;;;;;;;;5067974;28;20084;-78
2022/08/31 13:30:22;;;;;;;4.60;1.00;;;;;;;;;;5075319;28;20143;-78
2022/08/31 13:32:49;;;;;;;1.88;0.90;;;;;;;;;;5052359;28;20479;-78
2022/08/31 13:35:20;;;;;;;4.50;0.90;;;;;;;;;;5020235;28;20024;-78
2022/08/31 13:37:51;;;;;;;2.28;0.80;;;;;;;;;;5052314;28;20043;-78
2022/08/31 13:40:17;;;;;;;2.58;1.10;;;;;;;;;;5055582;28;20024;-78
2022/08/31 13:42:48;;;;;;;6.30;0.90;;;;;;;;;;5076087;28;20101;-78
2022/08/31 13:45:29;;;;;;;4.45;1.08;;;;;;;;;;5045297;28;20098;-76
2022/08/31 13:48:09;;;;;;;3.60;1.30;;;;;;;;;;5079698;28;20477;-80
2022/08/31 13:50:44;;;;;;;2.65;0.93;;;;;;;;;;5066365;28;20032;-78
2022/08/31 13:53:10;;;;;;;1.88;0.80;;;;;;;;;;5074169;28;20043;-78
2022/08/31 13:55:37;;;;;;;8.00;1.45;;;;;;;;;;5072826;28;20056;-78
2022/08/31 13:58:13;;;;;;;4.07;0.77;;;;;;;;;;5056423;28;20024;-78
2022/08/31 14:00:42;;;;;;;3.45;1.27;;;;;;;;;;5052444;28;20066;-78
2022/08/31 14:03:32;;;;;;;1.98;1.10;;;;;;;;;;5065772;28;20028;-77
2022/08/31 14:06:22;;;;;;;6.53;1.20;;;;;;;;;;5068108;28;20040;-77
2022/08/31 14:08:48;;;;;;;2.13;0.73;;;;;;;;;;5048562;28;20119;-76
2022/08/31 14:11:14;;;;;;;2.00;1.17;;;;;;;;;;5068738;28;20032;-76
2022/08/31 14:13:47;;;;;;;2.30;0.77;;;;;;;;;;5048020;28;20024;-77
2022/08/31 14:16:28;;;;;;;3.85;0.70;;;;;;;;;;5032616;28;20020;-77
2022/08/31 14:18:56;;;;;;;1.77;0.90;;;;;;;;;;5042753;28;20035;-77
2022/08/31 14:21:26;;;;;;;5.13;1.45;;;;;;;;;;5048758;28;20060;-76
2022/08/31 14:24:11;;;;;;;1.77;0.80;;;;;;;;;;5034637;28;20141;-77
2022/08/31 14:26:42;;;;;;;3.97;0.90;;;;;;;;;;5071870;28;20483;-78
2022/08/31 14:29:17;;;;;;;2.05;0.88;;;;;;;;;;5071399;28;20467;-77
2022/08/31 14:31:48;;;;;;;4.00;0.80;;;;;;;;;;5065590;28;20558;-77
2022/08/31 14:34:28;;;;;;;3.42;1.25;;;;;;;;;;5086903;28;20526;-76
2022/08/31 14:37:00;;;;;;;3.95;0.93;;;;;;;;;;5054724;28;20032;-77
2022/08/31 14:39:31;;;;;;;3.22;1.15;;;;;;;;;;5068394;28;20036;-76
2022/08/31 14:42:00;;;;;;;3.72;0.80;;;;;;;;;;5031427;28;20044;-76
2022/08/31 14:44:28;;;;;;;3.05;1.38;;;;;;;;;;5042792;28;20119;-76
2022/08/31 14:46:53;;;;;;;1.13;0.60;;;;;;;;;;5051936;28;20108;-77
2022/08/31 14:49:19;;;;;;;6.18;1.02;;;;;;;;;;5059999;28;20392;-76
2022/08/31 14:51:45;;;;;;;2.03;0.85;;;;;;;;;;5044397;28;20464;-76
2022/08/31 14:54:15;;;;;;;3.38;0.88;;;;;;;;;;5030243;28;20035;-76
2022/08/31 14:56:47;;;;;;;2.13;0.93;;;;;;;;;;5042835;28;20604;-76
2022/08/31 14:59:14;;;;;;;3.90;1.00;;;;;;;;;;5060026;28;20041;-76
2022/08/31 15:01:43;;;;;;;3.67;0.63;;;;;;;;;;5035558;28;20029;-76
2022/08/31 15:04:10;;;;;;;2.45;0.90;;;;;;;;;;5050971;28;20097;-76
2022/08/31 15:06:36;;;;;;;3.63;1.10;;;;;;;;;;5035266;28;20063;-76
2022/08/31 15:09:03;;;;;;;4.78;1.13;;;;;;;;;;5069239;28;20119;-75
2022/08/31 15:11:31;;;;;;;3.55;1.08;;;;;;;;;;5035366;28;20028;-75
2022/08/31 15:13:56;;;;;;;1.52;0.90;;;;;;;;;;5069227;28;20024;-76
2022/08/31 15:16:22;;;;;;;5.68;0.90;;;;;;;;;;5037578;28;20056;-77
2022/08/31 15:18:48;;;;;;;1.65;0.80;;;;;;;;;;5071404;28;20067;-77